sensor_id;sensor_type;location;lat;lon;timestamp;P1;durP1;ratioP1;P2;durP2;ratioP2
43327;SDS011;28923;45.412;10.852;2022-09-02T00:00:57;0.40;;;0.40;;
43327;SDS011;28923;45.412;10.852;2022-09-02T00:03:25;0.73;;;0.43;;
43327;SDS011;28923;45.412;10.852;2022-09-02T00:05:50;0.40;;;0.40;;
43327;SDS011;28923;45.412;10.852;2022-09-02T00:08:16;0.30;;;0.30;;
43327;SDS011;28923;45.412;10.852;2022-09-02T00:10:42;1.00;;;0.40;;
43327;SDS011;28923;45.412;10.852;2022-09-02T00:13:09;0.35;;;0.35;;
43327;SDS011;28923;45.412;10.852;2022-09-02T00:15:35;0.38;;;0.38;;
43327;SDS011;28923;45.412;10.852;2022-09-02T00:18:01;1.05;;;0.30;;
43327;SDS011;28923;45.412;10.852;2022-09-02T00:20:28;0.47;;;0.47;;
43327;SDS011;28923;45.412;10.852;2022-09-02T00:22:53;1.02;;;0.40;;
43327;SDS011;28923;45.412;10.852;2022-09-02T00:25:19;0.40;;;0.40;;
43327;SDS011;28923;45.412;10.852;2022-09-02T00:27:44;0.30;;;0.30;;
43327;SDS011;28923;45.412;10.852;2022-09-02T00:30:10;0.68;;;0.60;;
43327;SDS011;28923;45.412;10.852;2022-09-02T00:32:35;0.50;;;0.35;;
43327;SDS011;28923;45.412;10.852;2022-09-02T00:35:01;0.30;;;0.30;;
43327;SDS011;28923;45.412;10.852;2022-09-02T00:37:27;0.40;;;0.30;;
43327;SDS011;28923;45.412;10.852;2022-09-02T00:39:53;0.68;;;0.55;;
43327;SDS011;28923;45.412;10.852;2022-09-02T00:42:19;0.30;;;0.30;;
43327;SDS011;28923;45.412;10.852;2022-09-02T00:44:44;0.55;;;0.38;;
43327;SDS011;28923;45.412;10.852;2022-09-02T00:47:10;0.20;;;0.20;;
43327;SDS011;28923;45.412;10.852;2022-09-02T00:49:37;0.30;;;0.30;;
43327;SDS011;28923;45.412;10.852;2022-09-02T00:54:29;0.40;;;0.40;;
43327;SDS011;28923;45.412;10.852;2022-09-02T00:56:55;0.30;;;0.30;;
43327;SDS011;28923;45.412;10.852;2022-09-02T01:01:52;0.30;;;0.30;;
43327;SDS011;28923;45.412;10.852;2022-09-02T01:04:18;0.40;;;0.40;;
43327;SDS011;28923;45.412;10.852;2022-09-02T01:06:43;0.30;;;0.30;;
43327;SDS011;28923;45.412;10.852;2022-09-02T01:09:10;0.30;;;0.30;;
43327;SDS011;28923;45.412;10.852;2022-09-02T01:11:38;0.20;;;0.20;;
43327;SDS011;28923;45.412;10.852;2022-09-02T01:14:04;0.32;;;0.32;;
43327;SDS011;28923;45.412;10.852;2022-09-02T01:16:33;0.30;;;0.30;;
43327;SDS011;28923;45.412;10.852;2022-09-02T01:19:01;0.40;;;0.30;;
43327;SDS011;28923;45.412;10.852;2022-09-02T01:21:28;0.30;;;0.30;;
43327;SDS011;28923;45.412;10.852;2022-09-02T01:23:53;0.32;;;0.32;;
43327;SDS011;28923;45.412;10.852;2022-09-02T01:26:18;0.30;;;0.30;;
43327;SDS011;28923;45.412;10.852;2022-09-02T01:28:44;0.30;;;0.30;;
43327;SDS011;28923;45.412;10.852;2022-09-02T01:31:10;0.55;;;0.40;;
43327;SDS011;28923;45.412;10.852;2022-09-02T01:33:36;0.40;;;0.40;;
43327;SDS011;28923;45.412;10.852;2022-09-02T01:36:02;0.30;;;0.30;;
43327;SDS011;28923;45.412;10.852;2022-09-02T01:38:29;0.40;;;0.40;;
43327;SDS011;28923;45.412;10.852;2022-09-02T01:40:55;0.47;;;0.28;;
43327;SDS011;28923;45.412;10.852;2022-09-02T01:43:22;0.25;;;0.25;;
43327;SDS011;28923;45.412;10.852;2022-09-02T01:45:49;0.60;;;0.40;;
43327;SDS011;28923;45.412;10.852;2022-09-02T01:48:15;0.45;;;0.45;;
43327;SDS011;28923;45.412;10.852;2022-09-02T01:50:42;0.43;;;0.40;;
43327;SDS011;28923;45.412;10.852;2022-09-02T01:53:08;0.30;;;0.30;;
43327;SDS011;28923;45.412;10.852;2022-09-02T01:55:34;0.77;;;0.40;;
43327;SDS011;28923;45.412;10.852;2022-09-02T01:58:00;0.20;;;0.20;;
43327;SDS011;28923;45.412;10.852;2022-09-02T02:00:26;0.57;;;0.30;;
43327;SDS011;28923;45.412;10.852;2022-09-02T02:02:52;0.30;;;0.30;;
43327;SDS011;28923;45.412;10.852;2022-09-02T02:05:18;0.30;;;0.22;;
43327;SDS011;28923;45.412;10.852;2022-09-02T02:07:46;0.38;;;0.35;;
43327;SDS011;28923;45.412;10.852;2022-09-02T02:10:12;0.30;;;0.30;;
43327;SDS011;28923;45.412;10.852;2022-09-02T02:12:38;0.40;;;0.40;;
43327;SDS011;28923;45.412;10.852;2022-09-02T02:15:06;1.35;;;0.35;;
43327;SDS011;28923;45.412;10.852;2022-09-02T02:17:32;0.30;;;0.30;;
43327;SDS011;28923;45.412;10.852;2022-09-02T02:19:58;0.40;;;0.32;;
43327;SDS011;28923;45.412;10.852;2022-09-02T02:22:23;0.40;;;0.40;;
43327;SDS011;28923;45.412;10.852;2022-09-02T02:24:49;0.70;;;0.30;;
43327;SDS011;28923;45.412;10.852;2022-09-02T02:27:14;0.30;;;0.30;;
43327;SDS011;28923;45.412;10.852;2022-09-02T02:29:40;0.80;;;0.40;;
43327;SDS011;28923;45.412;10.852;2022-09-02T02:32:05;0.30;;;0.30;;
43327;SDS011;28923;45.412;10.852;2022-09-02T02:34:33;0.60;;;0.30;;
43327;SDS011;28923;45.412;10.852;2022-09-02T02:36:59;0.20;;;0.20;;
43327;SDS011;28923;45.412;10.852;2022-09-02T02:39:25;0.30;;;0.28;;
43327;SDS011;28923;45.412;10.852;2022-09-02T02:41:50;0.25;;;0.25;;
43327;SDS011;28923;45.412;10.852;2022-09-02T02:44:16;0.30;;;0.30;;
43327;SDS011;28923;45.412;10.852;2022-09-02T02:46:41;0.30;;;0.30;;
43327;SDS011;28923;45.412;10.852;2022-09-02T02:49:07;0.30;;;0.30;;
43327;SDS011;28923;45.412;10.852;2022-09-02T02:51:33;0.30;;;0.30;;
43327;SDS011;28923;45.412;10.852;2022-09-02T02:53:59;0.20;;;0.20;;
43327;SDS011;28923;45.412;10.852;2022-09-02T02:56:26;0.30;;;0.30;;
43327;SDS011;28923;45.412;10.852;2022-09-02T02:58:52;0.30;;;0.30;;
43327;SDS011;28923;45.412;10.852;2022-09-02T03:01:18;0.30;;;0.30;;
43327;SDS011;28923;45.412;10.852;2022-09-02T03:03:43;0.20;;;0.20;;
43327;SDS011;28923;45.412;10.852;2022-09-02T03:06:09;1.50;;;0.40;;
43327;SDS011;28923;45.412;10.852;2022-09-02T03:08:35;1.48;;;0.20;;
43327;SDS011;28923;45.412;10.852;2022-09-02T03:11:03;0.40;;;0.40;;
43327;SDS011;28923;45.412;10.852;2022-09-02T03:13:33;0.80;;;0.38;;
43327;SDS011;28923;45.412;10.852;2022-09-02T03:15:59;0.32;;;0.30;;
43327;SDS011;28923;45.412;10.852;2022-09-02T03:18:25;0.30;;;0.30;;
43327;SDS011;28923;45.412;10.852;2022-09-02T03:20:51;0.30;;;0.30;;
43327;SDS011;28923;45.412;10.852;2022-09-02T03:23:16;0.43;;;0.43;;
43327;SDS011;28923;45.412;10.852;2022-09-02T03:25:46;0.30;;;0.30;;
43327;SDS011;28923;45.412;10.852;2022-09-02T03:28:22;0.40;;;0.40;;
43327;SDS011;28923;45.412;10.852;2022-09-02T03:30:49;0.30;;;0.30;;
43327;SDS011;28923;45.412;10.852;2022-09-02T03:33:16;0.30;;;0.30;;
43327;SDS011;28923;45.412;10.852;2022-09-02T03:35:42;0.32;;;0.30;;
43327;SDS011;28923;45.412;10.852;2022-09-02T03:38:08;0.40;;;0.30;;
43327;SDS011;28923;45.412;10.852;2022-09-02T03:40:33;0.22;;;0.22;;
43327;SDS011;28923;45.412;10.852;2022-09-02T03:42:59;0.63;;;0.30;;
43327;SDS011;28923;45.412;10.852;2022-09-02T03:45:24;0.65;;;0.30;;
43327;SDS011;28923;45.412;10.852;2022-09-02T03:47:50;0.30;;;0.30;;
43327;SDS011;28923;45.412;10.852;2022-09-02T03:50:23;0.22;;;0.20;;
43327;SDS011;28923;45.412;10.852;2022-09-02T03:52:51;0.35;;;0.28;;
43327;SDS011;28923;45.412;10.852;2022-09-02T03:55:18;0.82;;;0.20;;
43327;SDS011;28923;45.412;10.852;2022-09-02T03:57:44;0.22;;;0.22;;
43327;SDS011;28923;45.412;10.852;2022-09-02T04:00:10;1.35;;;0.30;;
43327;SDS011;28923;45.412;10.852;2022-09-02T04:02:39;0.30;;;0.30;;
43327;SDS011;28923;45.412;10.852;2022-09-02T04:05:06;0.28;;;0.28;;
43327;SDS011;28923;45.412;10.852;2022-09-02T04:07:32;0.40;;;0.40;;
43327;SDS011;28923;45.412;10.852;2022-09-02T04:09:58;0.20;;;0.20;;
43327;SDS011;28923;45.412;10.852;2022-09-02T04:12:23;0.25;;;0.25;;
43327;SDS011;28923;45.412;10.852;2022-09-02T04:14:49;0.30;;;0.30;;
43327;SDS011;28923;45.412;10.852;2022-09-02T04:17:15;0.32;;;0.20;;
43327;SDS011;28923;45.412;10.852;2022-09-02T04:19:40;0.40;;;0.28;;
43327;SDS011;28923;45.412;10.852;2022-09-02T04:22:07;0.43;;;0.32;;
43327;SDS011;28923;45.412;10.852;2022-09-02T04:24:33;0.20;;;0.20;;
43327;SDS011;28923;45.412;10.852;2022-09-02T04:26:59;0.30;;;0.30;;
43327;SDS011;28923;45.412;10.852;2022-09-02T04:29:25;0.82;;;0.35;;
43327;SDS011;28923;45.412;10.852;2022-09-02T04:31:51;0.30;;;0.30;;
43327;SDS011;28923;45.412;10.852;2022-09-02T04:34:17;0.30;;;0.30;;
43327;SDS011;28923;45.412;10.852;2022-09-02T04:36:45;0.17;;;0.17;;
43327;SDS011;28923;45.412;10.852;2022-09-02T04:39:11;0.22;;;0.22;;
43327;SDS011;28923;45.412;10.852;2022-09-02T04:41:37;0.25;;;0.25;;
43327;SDS011;28923;45.412;10.852;2022-09-02T04:44:06;0.30;;;0.30;;
43327;SDS011;28923;45.412;10.852;2022-09-02T04:46:35;0.30;;;0.30;;
43327;SDS011;28923;45.412;10.852;2022-09-02T04:49:05;0.20;;;0.20;;
43327;SDS011;28923;45.412;10.852;2022-09-02T04:51:31;0.45;;;0.20;;
43327;SDS011;28923;45.412;10.852;2022-09-02T04:53:58;0.30;;;0.30;;
43327;SDS011;28923;45.412;10.852;2022-09-02T04:56:25;1.95;;;0.40;;
43327;SDS011;28923;45.412;10.852;2022-09-02T04:58:52;0.40;;;0.40;;
43327;SDS011;28923;45.412;10.852;2022-09-02T05:01:20;0.65;;;0.60;;
43327;SDS011;28923;45.412;10.852;2022-09-02T05:03:47;0.55;;;0.30;;
43327;SDS011;28923;45.412;10.852;2022-09-02T05:06:15;1.05;;;0.45;;
43327;SDS011;28923;45.412;10.852;2022-09-02T05:08:41;0.22;;;0.22;;
43327;SDS011;28923;45.412;10.852;2022-09-02T05:11:08;1.92;;;0.40;;
43327;SDS011;28923;45.412;10.852;2022-09-02T05:13:33;0.32;;;0.25;;
43327;SDS011;28923;45.412;10.852;2022-09-02T05:15:59;1.23;;;0.30;;
43327;SDS011;28923;45.412;10.852;2022-09-02T05:18:25;2.33;;;0.32;;
43327;SDS011;28923;45.412;10.852;2022-09-02T05:20:51;0.77;;;0.30;;
43327;SDS011;28923;45.412;10.852;2022-09-02T05:23:17;0.30;;;0.28;;
43327;SDS011;28923;45.412;10.852;2022-09-02T05:25:45;0.90;;;0.40;;
43327;SDS011;28923;45.412;10.852;2022-09-02T05:28:11;0.75;;;0.35;;
43327;SDS011;28923;45.412;10.852;2022-09-02T05:30:37;0.68;;;0.30;;
43327;SDS011;28923;45.412;10.852;2022-09-02T05:33:03;0.40;;;0.30;;
43327;SDS011;28923;45.412;10.852;2022-09-02T05:35:30;0.73;;;0.32;;
43327;SDS011;28923;45.412;10.852;2022-09-02T05:37:56;0.50;;;0.25;;
43327;SDS011;28923;45.412;10.852;2022-09-02T05:40:23;0.40;;;0.40;;
43327;SDS011;28923;45.412;10.852;2022-09-02T05:42:49;1.48;;;0.40;;
43327;SDS011;28923;45.412;10.852;2022-09-02T05:45:15;0.63;;;0.40;;
43327;SDS011;28923;45.412;10.852;2022-09-02T05:47:41;0.70;;;0.50;;
43327;SDS011;28923;45.412;10.852;2022-09-02T05:50:07;1.80;;;0.52;;
43327;SDS011;28923;45.412;10.852;2022-09-02T05:52:34;1.80;;;0.73;;
43327;SDS011;28923;45.412;10.852;2022-09-02T05:55:00;4.47;;;2.30;;
43327;SDS011;28923;45.412;10.852;2022-09-02T05:57:29;6.97;;;3.17;;
43327;SDS011;28923;45.412;10.852;2022-09-02T05:59:58;11.45;;;3.35;;
43327;SDS011;28923;45.412;10.852;2022-09-02T06:02:38;12.73;;;3.50;;
43327;SDS011;28923;45.412;10.852;2022-09-02T06:05:04;5.40;;;2.53;;
43327;SDS011;28923;45.412;10.852;2022-09-02T06:07:31;4.72;;;2.45;;
43327;SDS011;28923;45.412;10.852;2022-09-02T06:09:56;6.15;;;2.10;;
43327;SDS011;28923;45.412;10.852;2022-09-02T06:12:24;6.75;;;2.35;;
43327;SDS011;28923;45.412;10.852;2022-09-02T06:14:50;5.05;;;1.95;;
43327;SDS011;28923;45.412;10.852;2022-09-02T06:17:18;5.13;;;1.80;;
43327;SDS011;28923;45.412;10.852;2022-09-02T06:19:47;5.32;;;1.80;;
43327;SDS011;28923;45.412;10.852;2022-09-02T06:22:13;4.68;;;1.67;;
43327;SDS011;28923;45.412;10.852;2022-09-02T06:24:40;5.05;;;1.67;;
43327;SDS011;28923;45.412;10.852;2022-09-02T06:27:10;4.05;;;1.42;;
43327;SDS011;28923;45.412;10.852;2022-09-02T06:29:39;2.75;;;1.40;;
43327;SDS011;28923;45.412;10.852;2022-09-02T06:32:07;3.13;;;1.40;;
43327;SDS011;28923;45.412;10.852;2022-09-02T06:34:33;2.67;;;1.20;;
43327;SDS011;28923;45.412;10.852;2022-09-02T06:36:59;3.78;;;1.10;;
43327;SDS011;28923;45.412;10.852;2022-09-02T06:39:25;3.40;;;1.30;;
43327;SDS011;28923;45.412;10.852;2022-09-02T06:41:53;2.33;;;1.40;;
43327;SDS011;28923;45.412;10.852;2022-09-02T06:44:21;3.42;;;1.38;;
43327;SDS011;28923;45.412;10.852;2022-09-02T06:46:51;4.15;;;1.65;;
43327;SDS011;28923;45.412;10.852;2022-09-02T06:49:17;4.05;;;1.73;;
43327;SDS011;28923;45.412;10.852;2022-09-02T06:51:47;5.78;;;1.60;;
43327;SDS011;28923;45.412;10.852;2022-09-02T06:54:15;3.15;;;1.30;;
43327;SDS011;28923;45.412;10.852;2022-09-02T06:56:42;4.32;;;1.52;;
43327;SDS011;28923;45.412;10.852;2022-09-02T06:59:09;2.70;;;1.30;;
43327;SDS011;28923;45.412;10.852;2022-09-02T07:01:41;3.83;;;1.63;;
43327;SDS011;28923;45.412;10.852;2022-09-02T07:04:08;3.58;;;1.30;;
43327;SDS011;28923;45.412;10.852;2022-09-02T07:06:53;4.07;;;1.50;;
43327;SDS011;28923;45.412;10.852;2022-09-02T07:09:22;3.80;;;1.40;;
43327;SDS011;28923;45.412;10.852;2022-09-02T07:11:49;6.07;;;1.52;;
43327;SDS011;28923;45.412;10.852;2022-09-02T07:14:17;2.72;;;1.20;;
43327;SDS011;28923;45.412;10.852;2022-09-02T07:16:48;3.15;;;1.20;;
43327;SDS011;28923;45.412;10.852;2022-09-02T07:19:14;3.95;;;1.35;;
43327;SDS011;28923;45.412;10.852;2022-09-02T07:21:40;5.60;;;1.70;;
43327;SDS011;28923;45.412;10.852;2022-09-02T07:24:06;2.65;;;1.17;;
43327;SDS011;28923;45.412;10.852;2022-09-02T07:26:32;2.22;;;1.15;;
43327;SDS011;28923;45.412;10.852;2022-09-02T07:28:58;2.42;;;1.23;;
43327;SDS011;28923;45.412;10.852;2022-09-02T07:31:25;3.08;;;1.55;;
43327;SDS011;28923;45.412;10.852;2022-09-02T07:33:55;2.45;;;1.20;;
43327;SDS011;28923;45.412;10.852;2022-09-02T07:36:24;2.42;;;1.30;;
43327;SDS011;28923;45.412;10.852;2022-09-02T07:38:50;1.70;;;1.02;;
43327;SDS011;28923;45.412;10.852;2022-09-02T07:41:15;1.95;;;1.27;;
43327;SDS011;28923;45.412;10.852;2022-09-02T07:43:41;5.38;;;1.17;;
43327;SDS011;28923;45.412;10.852;2022-09-02T07:46:08;1.58;;;1.20;;
43327;SDS011;28923;45.412;10.852;2022-09-02T07:48:34;3.67;;;1.40;;
43327;SDS011;28923;45.412;10.852;2022-09-02T07:51:00;3.13;;;1.33;;
43327;SDS011;28923;45.412;10.852;2022-09-02T07:53:27;2.90;;;1.35;;
43327;SDS011;28923;45.412;10.852;2022-09-02T07:55:53;2.33;;;1.58;;
43327;SDS011;28923;45.412;10.852;2022-09-02T07:58:19;3.53;;;1.58;;
43327;SDS011;28923;45.412;10.852;2022-09-02T08:00:48;3.47;;;1.40;;
43327;SDS011;28923;45.412;10.852;2022-09-02T08:03:14;2.13;;;1.30;;
43327;SDS011;28923;45.412;10.852;2022-09-02T08:05:46;2.67;;;1.40;;
43327;SDS011;28923;45.412;10.852;2022-09-02T08:08:12;2.33;;;1.20;;
43327;SDS011;28923;45.412;10.852;2022-09-02T08:10:37;2.22;;;1.33;;
43327;SDS011;28923;45.412;10.852;2022-09-02T08:13:03;1.35;;;1.10;;
43327;SDS011;28923;45.412;10.852;2022-09-02T08:15:30;3.13;;;1.38;;
43327;SDS011;28923;45.412;10.852;2022-09-02T08:17:56;2.60;;;1.30;;
43327;SDS011;28923;45.412;10.852;2022-09-02T08:20:22;3.85;;;1.30;;
43327;SDS011;28923;45.412;10.852;2022-09-02T08:22:47;2.60;;;1.00;;
43327;SDS011;28923;45.412;10.852;2022-09-02T08:25:13;5.32;;;1.42;;
43327;SDS011;28923;45.412;10.852;2022-09-02T08:27:39;2.83;;;1.10;;
43327;SDS011;28923;45.412;10.852;2022-09-02T08:30:06;2.45;;;1.00;;
43327;SDS011;28923;45.412;10.852;2022-09-02T08:32:34;3.20;;;1.30;;
43327;SDS011;28923;45.412;10.852;2022-09-02T08:34:59;2.17;;;1.00;;
43327;SDS011;28923;45.412;10.852;2022-09-02T08:37:27;4.65;;;1.42;;
43327;SDS011;28923;45.412;10.852;2022-09-02T08:39:52;2.28;;;1.20;;
43327;SDS011;28923;45.412;10.852;2022-09-02T08:42:20;2.28;;;1.30;;
43327;SDS011;28923;45.412;10.852;2022-09-02T08:44:47;5.20;;;1.30;;
43327;SDS011;28923;45.412;10.852;2022-09-02T08:47:15;3.00;;;1.08;;
43327;SDS011;28923;45.412;10.852;2022-09-02T08:49:47;1.55;;;1.02;;
43327;SDS011;28923;45.412;10.852;2022-09-02T08:52:37;3.33;;;1.30;;
43327;SDS011;28923;45.412;10.852;2022-09-02T08:55:04;3.58;;;1.00;;
43327;SDS011;28923;45.412;10.852;2022-09-02T08:57:30;1.77;;;1.17;;
43327;SDS011;28923;45.412;10.852;2022-09-02T08:59:56;1.58;;;1.13;;
43327;SDS011;28923;45.412;10.852;2022-09-02T09:02:58;2.30;;;1.10;;
43327;SDS011;28923;45.412;10.852;2022-09-02T09:15:21;2.47;;;1.13;;
43327;SDS011;28923;45.412;10.852;2022-09-02T09:17:59;2.22;;;1.20;;
43327;SDS011;28923;45.412;10.852;2022-09-02T09:20:28;3.35;;;1.10;;
43327;SDS011;28923;45.412;10.852;2022-09-02T09:22:55;4.22;;;1.35;;
43327;SDS011;28923;45.412;10.852;2022-09-02T09:25:21;2.13;;;1.17;;
43327;SDS011;28923;45.412;10.852;2022-09-02T09:27:54;1.35;;;1.23;;
43327;SDS011;28923;45.412;10.852;2022-09-02T09:30:20;1.52;;;0.90;;
43327;SDS011;28923;45.412;10.852;2022-09-02T09:32:46;1.90;;;1.15;;
43327;SDS011;28923;45.412;10.852;2022-09-02T09:35:14;2.25;;;1.02;;
43327;SDS011;28923;45.412;10.852;2022-09-02T09:37:46;1.65;;;1.10;;
43327;SDS011;28923;45.412;10.852;2022-09-02T09:42:41;2.40;;;1.13;;
43327;SDS011;28923;45.412;10.852;2022-09-02T09:47:41;2.75;;;1.20;;
43327;SDS011;28923;45.412;10.852;2022-09-02T09:50:09;2.15;;;1.17;;
43327;SDS011;28923;45.412;10.852;2022-09-02T09:52:34;2.08;;;1.13;;
43327;SDS011;28923;45.412;10.852;2022-09-02T09:55:19;2.33;;;1.08;;
43327;SDS011;28923;45.412;10.852;2022-09-02T09:57:48;2.00;;;1.08;;
43327;SDS011;28923;45.412;10.852;2022-09-02T10:02:49;1.20;;;1.00;;
43327;SDS011;28923;45.412;10.852;2022-09-02T10:05:26;2.50;;;0.90;;
43327;SDS011;28923;45.412;10.852;2022-09-02T10:07:56;1.25;;;0.80;;
43327;SDS011;28923;45.412;10.852;2022-09-02T10:10:22;1.58;;;1.00;;
43327;SDS011;28923;45.412;10.852;2022-09-02T10:12:48;2.70;;;1.17;;
43327;SDS011;28923;45.412;10.852;2022-09-02T10:15:15;2.63;;;1.20;;
43327;SDS011;28923;45.412;10.852;2022-09-02T10:17:53;1.73;;;1.00;;
43327;SDS011;28923;45.412;10.852;2022-09-02T10:30:21;3.92;;;1.13;;
43327;SDS011;28923;45.412;10.852;2022-09-02T10:40:25;2.88;;;1.27;;
43327;SDS011;28923;45.412;10.852;2022-09-02T10:45:30;4.82;;;1.30;;
43327;SDS011;28923;45.412;10.852;2022-09-02T10:58:13;3.45;;;1.05;;
43327;SDS011;28923;45.412;10.852;2022-09-02T11:00:42;1.83;;;1.35;;
43327;SDS011;28923;45.412;10.852;2022-09-02T11:03:13;2.40;;;0.90;;
43327;SDS011;28923;45.412;10.852;2022-09-02T11:05:42;2.53;;;1.08;;
43327;SDS011;28923;45.412;10.852;2022-09-02T11:08:10;2.03;;;0.80;;
43327;SDS011;28923;45.412;10.852;2022-09-02T11:10:48;1.45;;;1.00;;
43327;SDS011;28923;45.412;10.852;2022-09-02T11:13:22;2.47;;;1.30;;
43327;SDS011;28923;45.412;10.852;2022-09-02T11:15:58;1.13;;;1.02;;
43327;SDS011;28923;45.412;10.852;2022-09-02T11:26:36;2.40;;;1.10;;
43327;SDS011;28923;45.412;10.852;2022-09-02T11:29:13;3.35;;;1.10;;
43327;SDS011;28923;45.412;10.852;2022-09-02T11:31:42;4.57;;;1.20;;
43327;SDS011;28923;45.412;10.852;2022-09-02T11:36:36;3.55;;;1.20;;
43327;SDS011;28923;45.412;10.852;2022-09-02T11:39:09;0.82;;;0.82;;
43327;SDS011;28923;45.412;10.852;2022-09-02T11:52:05;2.50;;;0.98;;
43327;SDS011;28923;45.412;10.852;2022-09-02T11:54:34;1.48;;;1.00;;
43327;SDS011;28923;45.412;10.852;2022-09-02T11:57:01;3.20;;;0.90;;
43327;SDS011;28923;45.412;10.852;2022-09-02T12:02:12;5.63;;;1.10;;
43327;SDS011;28923;45.412;10.852;2022-09-02T12:04:37;2.35;;;1.00;;
43327;SDS011;28923;45.412;10.852;2022-09-02T12:12:07;5.10;;;1.20;;
43327;SDS011;28923;45.412;10.852;2022-09-02T12:17:11;5.25;;;1.33;;
43327;SDS011;28923;45.412;10.852;2022-09-02T12:20:03;5.65;;;1.10;;
43327;SDS011;28923;45.412;10.852;2022-09-02T12:22:32;2.55;;;1.20;;
43327;SDS011;28923;45.412;10.852;2022-09-02T12:24:58;2.67;;;1.20;;
43327;SDS011;28923;45.412;10.852;2022-09-02T12:27:42;3.45;;;1.20;;
43327;SDS011;28923;45.412;10.852;2022-09-02T12:30:11;2.47;;;1.17;;
43327;SDS011;28923;45.412;10.852;2022-09-02T12:40:38;3.47;;;1.00;;
43327;SDS011;28923;45.412;10.852;2022-09-02T12:43:14;3.53;;;1.15;;
43327;SDS011;28923;45.412;10.852;2022-09-02T12:45:41;1.77;;;1.00;;
43327;SDS011;28923;45.412;10.852;2022-09-02T12:58:21;2.72;;;0.82;;
43327;SDS011;28923;45.412;10.852;2022-09-02T13:08:58;1.52;;;0.90;;
43327;SDS011;28923;45.412;10.852;2022-09-02T13:16:16;2.63;;;1.10;;
43327;SDS011;28923;45.412;10.852;2022-09-02T13:31:30;1.17;;;0.80;;
43327;SDS011;28923;45.412;10.852;2022-09-02T13:33:59;1.55;;;0.90;;
43327;SDS011;28923;45.412;10.852;2022-09-02T13:36:26;1.08;;;0.90;;
43327;SDS011;28923;45.412;10.852;2022-09-02T13:38:52;2.53;;;1.10;;
43327;SDS011;28923;45.412;10.852;2022-09-02T13:41:30;1.45;;;1.00;;
43327;SDS011;28923;45.412;10.852;2022-09-02T13:44:09;1.85;;;1.02;;
43327;SDS011;28923;45.412;10.852;2022-09-02T13:47:12;2.30;;;0.85;;
43327;SDS011;28923;45.412;10.852;2022-09-02T13:49:34;1.25;;;1.15;;
43327;SDS011;28923;45.412;10.852;2022-09-02T13:52:00;3.15;;;1.02;;
43327;SDS011;28923;45.412;10.852;2022-09-02T13:54:27;2.35;;;1.17;;
43327;SDS011;28923;45.412;10.852;2022-09-02T13:56:54;1.30;;;0.82;;
43327;SDS011;28923;45.412;10.852;2022-09-02T13:59:32;1.33;;;1.02;;
43327;SDS011;28923;45.412;10.852;2022-09-02T14:01:58;1.88;;;1.00;;
43327;SDS011;28923;45.412;10.852;2022-09-02T14:04:23;2.83;;;1.00;;
43327;SDS011;28923;45.412;10.852;2022-09-02T14:06:49;1.63;;;0.90;;
43327;SDS011;28923;45.412;10.852;2022-09-02T14:09:25;1.50;;;1.05;;
43327;SDS011;28923;45.412;10.852;2022-09-02T14:11:51;1.02;;;0.93;;
43327;SDS011;28923;45.412;10.852;2022-09-02T14:14:20;1.88;;;0.68;;
43327;SDS011;28923;45.412;10.852;2022-09-02T14:16:46;6.00;;;1.20;;
43327;SDS011;28923;45.412;10.852;2022-09-02T14:21:46;7.05;;;1.20;;
43327;SDS011;28923;45.412;10.852;2022-09-02T14:24:13;4.25;;;1.35;;
43327;SDS011;28923;45.412;10.852;2022-09-02T14:26:42;1.92;;;1.10;;
43327;SDS011;28923;45.412;10.852;2022-09-02T14:29:11;7.68;;;1.40;;
43327;SDS011;28923;45.412;10.852;2022-09-02T14:31:37;4.75;;;1.40;;
43327;SDS011;28923;45.412;10.852;2022-09-02T14:34:03;3.97;;;1.60;;
43327;SDS011;28923;45.412;10.852;2022-09-02T14:36:34;3.92;;;1.58;;
43327;SDS011;28923;45.412;10.852;2022-09-02T14:39:11;6.32;;;1.42;;
43327;SDS011;28923;45.412;10.852;2022-09-02T14:41:40;3.58;;;1.30;;
43327;SDS011;28923;45.412;10.852;2022-09-02T14:44:13;2.58;;;1.10;;
43327;SDS011;28923;45.412;10.852;2022-09-02T14:46:46;3.40;;;1.40;;
43327;SDS011;28923;45.412;10.852;2022-09-02T14:49:25;5.45;;;1.23;;
43327;SDS011;28923;45.412;10.852;2022-09-02T14:52:02;3.63;;;1.25;;
43327;SDS011;28923;45.412;10.852;2022-09-02T14:56:57;5.68;;;1.67;;
43327;SDS011;28923;45.412;10.852;2022-09-02T14:59:23;8.52;;;1.27;;
43327;SDS011;28923;45.412;10.852;2022-09-02T15:01:49;5.20;;;1.38;;
43327;SDS011;28923;45.412;10.852;2022-09-02T15:04:15;8.15;;;1.50;;
43327;SDS011;28923;45.412;10.852;2022-09-02T15:06:41;7.60;;;1.73;;
43327;SDS011;28923;45.412;10.852;2022-09-02T15:09:07;10.55;;;1.85;;
43327;SDS011;28923;45.412;10.852;2022-09-02T15:11:32;11.57;;;1.77;;
43327;SDS011;28923;45.412;10.852;2022-09-02T15:13:58;12.75;;;1.50;;
43327;SDS011;28923;45.412;10.852;2022-09-02T15:16:23;9.40;;;1.80;;
43327;SDS011;28923;45.412;10.852;2022-09-02T15:18:48;13.20;;;2.17;;
43327;SDS011;28923;45.412;10.852;2022-09-02T15:21:14;7.60;;;1.67;;
43327;SDS011;28923;45.412;10.852;2022-09-02T15:23:40;13.52;;;1.83;;
43327;SDS011;28923;45.412;10.852;2022-09-02T15:26:06;7.70;;;2.05;;
43327;SDS011;28923;45.412;10.852;2022-09-02T15:28:32;8.60;;;1.63;;
43327;SDS011;28923;45.412;10.852;2022-09-02T15:30:58;10.13;;;1.77;;
43327;SDS011;28923;45.412;10.852;2022-09-02T15:33:24;8.43;;;2.00;;
43327;SDS011;28923;45.412;10.852;2022-09-02T15:35:49;8.70;;;1.52;;
43327;SDS011;28923;45.412;10.852;2022-09-02T15:38:15;7.65;;;1.55;;
43327;SDS011;28923;45.412;10.852;2022-09-02T15:40:41;5.60;;;1.50;;
43327;SDS011;28923;45.412;10.852;2022-09-02T15:43:08;8.55;;;2.13;;
43327;SDS011;28923;45.412;10.852;2022-09-02T15:45:33;3.80;;;1.40;;
43327;SDS011;28923;45.412;10.852;2022-09-02T15:47:59;7.60;;;1.73;;
43327;SDS011;28923;45.412;10.852;2022-09-02T15:50:24;6.15;;;1.50;;
43327;SDS011;28923;45.412;10.852;2022-09-02T15:52:50;9.70;;;1.77;;
43327;SDS011;28923;45.412;10.852;2022-09-02T15:55:16;5.72;;;1.60;;
43327;SDS011;28923;45.412;10.852;2022-09-02T15:57:41;5.07;;;1.35;;
43327;SDS011;28923;45.412;10.852;2022-09-02T16:00:07;5.88;;;1.60;;
43327;SDS011;28923;45.412;10.852;2022-09-02T16:02:36;8.30;;;1.50;;
43327;SDS011;28923;45.412;10.852;2022-09-02T16:05:02;4.57;;;1.20;;
43327;SDS011;28923;45.412;10.852;2022-09-02T16:07:27;4.35;;;1.58;;
43327;SDS011;28923;45.412;10.852;2022-09-02T16:09:53;4.03;;;1.70;;
43327;SDS011;28923;45.412;10.852;2022-09-02T16:12:18;1.77;;;1.20;;
43327;SDS011;28923;45.412;10.852;2022-09-02T16:14:43;5.30;;;1.75;;
43327;SDS011;28923;45.412;10.852;2022-09-02T16:17:13;4.22;;;1.60;;
43327;SDS011;28923;45.412;10.852;2022-09-02T16:19:40;5.85;;;1.40;;
43327;SDS011;28923;45.412;10.852;2022-09-02T16:22:05;5.45;;;1.27;;
43327;SDS011;28923;45.412;10.852;2022-09-02T16:24:31;5.70;;;1.27;;
43327;SDS011;28923;45.412;10.852;2022-09-02T16:26:56;7.32;;;1.30;;
43327;SDS011;28923;45.412;10.852;2022-09-02T16:29:21;3.78;;;1.20;;
43327;SDS011;28923;45.412;10.852;2022-09-02T16:31:50;4.65;;;1.30;;
43327;SDS011;28923;45.412;10.852;2022-09-02T16:34:16;3.67;;;1.55;;
43327;SDS011;28923;45.412;10.852;2022-09-02T16:36:45;3.70;;;1.40;;
43327;SDS011;28923;45.412;10.852;2022-09-02T16:39:12;3.13;;;1.48;;
43327;SDS011;28923;45.412;10.852;2022-09-02T16:41:44;4.35;;;1.50;;
43327;SDS011;28923;45.412;10.852;2022-09-02T16:44:11;5.25;;;1.80;;
43327;SDS011;28923;45.412;10.852;2022-09-02T16:46:37;4.88;;;1.52;;
43327;SDS011;28923;45.412;10.852;2022-09-02T16:49:05;5.35;;;1.60;;